sensor_id;sensor_type;location;lat;lon;timestamp;P1;durP1;ratioP1;P2;durP2;ratioP2
24631;SDS011;59977;48.782;9.190;2023-06-22T00:00:27;14.80;;;7.70;;
24631;SDS011;59977;48.782;9.190;2023-06-22T00:02:53;15.32;;;7.32;;
24631;SDS011;59977;48.782;9.190;2023-06-22T00:05:19;10.57;;;6.82;;
24631;SDS011;59977;48.782;9.190;2023-06-22T00:07:45;11.38;;;7.07;;
24631;SDS011;59977;48.782;9.190;2023-06-22T00:10:11;13.40;;;7.57;;
24631;SDS011;59977;48.782;9.190;2023-06-22T00:12:37;15.25;;;7.40;;
24631;SDS011;59977;48.782;9.190;2023-06-22T00:15:03;15.02;;;7.30;;
24631;SDS011;59977;48.782;9.190;2023-06-22T00:17:29;11.65;;;7.00;;
24631;SDS011;59977;48.782;9.190;2023-06-22T00:19:55;14.45;;;7.13;;
24631;SDS011;59977;48.782;9.190;2023-06-22T00:22:23;11.40;;;7.25;;
24631;SDS011;59977;48.782;9.190;2023-06-22T00:24:56;14.18;;;7.68;;
24631;SDS011;59977;48.782;9.190;2023-06-22T00:27:22;12.27;;;7.32;;
24631;SDS011;59977;48.782;9.190;2023-06-22T00:29:48;16.65;;;7.88;;
24631;SDS011;59977;48.782;9.190;2023-06-22T00:32:13;13.50;;;7.65;;
24631;SDS011;59977;48.782;9.190;2023-06-22T00:34:39;14.85;;;8.05;;
24631;SDS011;59977;48.782;9.190;2023-06-22T00:37:05;12.48;;;7.35;;
24631;SDS011;59977;48.782;9.190;2023-06-22T00:39:31;19.50;;;7.45;;
24631;SDS011;59977;48.782;9.190;2023-06-22T00:41:59;16.73;;;7.70;;
24631;SDS011;59977;48.782;9.190;2023-06-22T00:44:24;18.75;;;7.10;;
24631;SDS011;59977;48.782;9.190;2023-06-22T00:46:51;13.68;;;7.35;;
24631;SDS011;59977;48.782;9.190;2023-06-22T00:49:17;10.70;;;7.10;;
24631;SDS011;59977;48.782;9.190;2023-06-22T00:51:43;14.38;;;7.28;;
24631;SDS011;59977;48.782;9.190;2023-06-22T00:54:10;13.77;;;7.45;;
24631;SDS011;59977;48.782;9.190;2023-06-22T00:56:38;16.08;;;7.60;;
24631;SDS011;59977;48.782;9.190;2023-06-22T00:59:04;13.50;;;7.57;;
24631;SDS011;59977;48.782;9.190;2023-06-22T01:01:30;14.02;;;7.50;;
24631;SDS011;59977;48.782;9.190;2023-06-22T01:03:57;16.58;;;7.65;;
24631;SDS011;59977;48.782;9.190;2023-06-22T01:06:26;11.13;;;7.35;;
24631;SDS011;59977;48.782;9.190;2023-06-22T01:09:00;18.13;;;8.00;;
24631;SDS011;59977;48.782;9.190;2023-06-22T01:11:32;15.82;;;8.07;;
24631;SDS011;59977;48.782;9.190;2023-06-22T01:16:33;12.90;;;7.88;;
24631;SDS011;59977;48.782;9.190;2023-06-22T01:19:01;14.10;;;7.22;;
24631;SDS011;59977;48.782;9.190;2023-06-22T01:21:28;14.40;;;7.50;;
24631;SDS011;59977;48.782;9.190;2023-06-22T01:26:43;16.30;;;7.55;;
24631;SDS011;59977;48.782;9.190;2023-06-22T01:29:12;11.60;;;7.72;;
24631;SDS011;59977;48.782;9.190;2023-06-22T01:31:39;14.27;;;7.75;;
24631;SDS011;59977;48.782;9.190;2023-06-22T01:34:06;13.77;;;7.88;;
24631;SDS011;59977;48.782;9.190;2023-06-22T01:36:33;11.15;;;8.07;;
24631;SDS011;59977;48.782;9.190;2023-06-22T01:39:00;17.20;;;8.18;;
24631;SDS011;59977;48.782;9.190;2023-06-22T01:41:26;14.57;;;7.55;;
24631;SDS011;59977;48.782;9.190;2023-06-22T01:43:54;12.60;;;7.72;;
24631;SDS011;59977;48.782;9.190;2023-06-22T01:46:21;18.60;;;8.13;;
24631;SDS011;59977;48.782;9.190;2023-06-22T01:48:47;12.43;;;7.43;;
24631;SDS011;59977;48.782;9.190;2023-06-22T01:51:13;17.92;;;7.47;;
24631;SDS011;59977;48.782;9.190;2023-06-22T01:53:40;17.00;;;8.05;;
24631;SDS011;59977;48.782;9.190;2023-06-22T01:56:06;15.88;;;8.00;;
24631;SDS011;59977;48.782;9.190;2023-06-22T01:58:32;21.35;;;7.90;;
24631;SDS011;59977;48.782;9.190;2023-06-22T02:03:34;13.90;;;8.02;;
24631;SDS011;59977;48.782;9.190;2023-06-22T02:06:10;19.85;;;8.35;;
24631;SDS011;59977;48.782;9.190;2023-06-22T02:08:41;20.15;;;9.00;;
24631;SDS011;59977;48.782;9.190;2023-06-22T02:11:08;21.10;;;8.05;;
24631;SDS011;59977;48.782;9.190;2023-06-22T02:13:36;20.17;;;8.60;;
24631;SDS011;59977;48.782;9.190;2023-06-22T02:16:03;15.73;;;8.45;;
24631;SDS011;59977;48.782;9.190;2023-06-22T02:18:29;13.60;;;8.25;;
24631;SDS011;59977;48.782;9.190;2023-06-22T02:20:55;14.05;;;8.10;;
24631;SDS011;59977;48.782;9.190;2023-06-22T02:23:21;20.02;;;8.00;;
24631;SDS011;59977;48.782;9.190;2023-06-22T02:25:47;17.23;;;8.52;;
24631;SDS011;59977;48.782;9.190;2023-06-22T02:28:13;15.85;;;8.60;;
24631;SDS011;59977;48.782;9.190;2023-06-22T02:30:38;13.90;;;7.68;;
24631;SDS011;59977;48.782;9.190;2023-06-22T02:33:04;13.25;;;8.45;;
24631;SDS011;59977;48.782;9.190;2023-06-22T02:35:30;11.90;;;7.55;;
24631;SDS011;59977;48.782;9.190;2023-06-22T02:37:59;16.08;;;8.30;;
24631;SDS011;59977;48.782;9.190;2023-06-22T02:40:26;11.27;;;7.78;;
24631;SDS011;59977;48.782;9.190;2023-06-22T02:42:52;14.98;;;8.20;;
24631;SDS011;59977;48.782;9.190;2023-06-22T02:45:19;13.27;;;8.45;;
24631;SDS011;59977;48.782;9.190;2023-06-22T02:47:45;13.40;;;8.18;;
24631;SDS011;59977;48.782;9.190;2023-06-22T02:50:12;16.50;;;8.20;;
24631;SDS011;59977;48.782;9.190;2023-06-22T02:52:38;13.85;;;8.27;;
24631;SDS011;59977;48.782;9.190;2023-06-22T02:55:05;15.75;;;8.52;;
24631;SDS011;59977;48.782;9.190;2023-06-22T02:57:32;15.32;;;8.48;;
24631;SDS011;59977;48.782;9.190;2023-06-22T02:59:58;16.10;;;7.95;;
24631;SDS011;59977;48.782;9.190;2023-06-22T03:02:24;17.02;;;9.05;;
24631;SDS011;59977;48.782;9.190;2023-06-22T03:04:51;11.85;;;8.30;;
24631;SDS011;59977;48.782;9.190;2023-06-22T03:07:18;13.70;;;8.07;;
24631;SDS011;59977;48.782;9.190;2023-06-22T03:09:44;15.40;;;8.55;;
24631;SDS011;59977;48.782;9.190;2023-06-22T03:12:10;20.02;;;8.48;;
24631;SDS011;59977;48.782;9.190;2023-06-22T03:14:36;14.85;;;8.55;;
24631;SDS011;59977;48.782;9.190;2023-06-22T03:17:04;16.70;;;8.75;;
24631;SDS011;59977;48.782;9.190;2023-06-22T03:19:31;20.77;;;8.48;;
24631;SDS011;59977;48.782;9.190;2023-06-22T03:21:57;15.65;;;8.82;;
24631;SDS011;59977;48.782;9.190;2023-06-22T03:24:23;17.35;;;8.77;;
24631;SDS011;59977;48.782;9.190;2023-06-22T03:26:49;17.50;;;9.02;;
24631;SDS011;59977;48.782;9.190;2023-06-22T03:29:15;15.02;;;9.23;;
24631;SDS011;59977;48.782;9.190;2023-06-22T03:31:41;17.13;;;8.65;;
24631;SDS011;59977;48.782;9.190;2023-06-22T03:34:07;21.95;;;9.25;;
24631;SDS011;59977;48.782;9.190;2023-06-22T03:36:33;15.98;;;9.38;;
24631;SDS011;59977;48.782;9.190;2023-06-22T03:38:59;13.30;;;8.75;;
24631;SDS011;59977;48.782;9.190;2023-06-22T03:41:25;17.05;;;9.27;;
24631;SDS011;59977;48.782;9.190;2023-06-22T03:43:51;15.52;;;9.65;;
24631;SDS011;59977;48.782;9.190;2023-06-22T03:46:17;14.20;;;9.38;;
24631;SDS011;59977;48.782;9.190;2023-06-22T03:48:44;16.50;;;9.27;;
24631;SDS011;59977;48.782;9.190;2023-06-22T03:51:10;14.98;;;9.20;;
24631;SDS011;59977;48.782;9.190;2023-06-22T03:53:36;14.32;;;9.05;;
24631;SDS011;59977;48.782;9.190;2023-06-22T03:56:02;19.95;;;8.90;;
24631;SDS011;59977;48.782;9.190;2023-06-22T03:58:28;13.98;;;8.55;;
24631;SDS011;59977;48.782;9.190;2023-06-22T04:00:57;15.85;;;8.43;;
24631;SDS011;59977;48.782;9.190;2023-06-22T04:03:25;16.60;;;7.80;;
24631;SDS011;59977;48.782;9.190;2023-06-22T04:05:50;12.95;;;8.07;;
24631;SDS011;59977;48.782;9.190;2023-06-22T04:08:16;22.13;;;8.63;;
24631;SDS011;59977;48.782;9.190;2023-06-22T04:10:42;15.93;;;8.63;;
24631;SDS011;59977;48.782;9.190;2023-06-22T04:13:08;18.40;;;8.90;;
24631;SDS011;59977;48.782;9.190;2023-06-22T04:15:34;15.20;;;8.70;;
24631;SDS011;59977;48.782;9.190;2023-06-22T04:18:00;23.98;;;8.85;;
24631;SDS011;59977;48.782;9.190;2023-06-22T04:20:26;16.33;;;8.32;;
24631;SDS011;59977;48.782;9.190;2023-06-22T04:22:53;15.77;;;9.30;;
24631;SDS011;59977;48.782;9.190;2023-06-22T04:25:19;17.75;;;9.13;;
24631;SDS011;59977;48.782;9.190;2023-06-22T04:27:45;19.85;;;8.95;;
24631;SDS011;59977;48.782;9.190;2023-06-22T04:30:11;15.75;;;9.18;;
24631;SDS011;59977;48.782;9.190;2023-06-22T04:32:40;17.10;;;9.30;;
24631;SDS011;59977;48.782;9.190;2023-06-22T04:35:06;15.73;;;8.98;;
24631;SDS011;59977;48.782;9.190;2023-06-22T04:37:32;21.20;;;9.60;;
24631;SDS011;59977;48.782;9.190;2023-06-22T04:39:58;17.90;;;9.27;;
24631;SDS011;59977;48.782;9.190;2023-06-22T04:42:25;17.85;;;9.43;;
24631;SDS011;59977;48.782;9.190;2023-06-22T04:44:52;16.63;;;8.57;;
24631;SDS011;59977;48.782;9.190;2023-06-22T04:47:18;22.55;;;9.60;;
24631;SDS011;59977;48.782;9.190;2023-06-22T04:49:44;16.02;;;9.50;;
24631;SDS011;59977;48.782;9.190;2023-06-22T04:52:12;15.75;;;9.52;;
24631;SDS011;59977;48.782;9.190;2023-06-22T04:54:38;19.90;;;9.80;;
24631;SDS011;59977;48.782;9.190;2023-06-22T04:57:06;16.75;;;9.55;;
24631;SDS011;59977;48.782;9.190;2023-06-22T04:59:35;14.70;;;9.15;;
24631;SDS011;59977;48.782;9.190;2023-06-22T05:02:04;16.60;;;10.02;;
24631;SDS011;59977;48.782;9.190;2023-06-22T05:04:30;17.70;;;10.07;;
24631;SDS011;59977;48.782;9.190;2023-06-22T05:06:57;15.77;;;9.73;;
24631;SDS011;59977;48.782;9.190;2023-06-22T05:09:23;18.40;;;9.13;;
24631;SDS011;59977;48.782;9.190;2023-06-22T05:11:50;18.42;;;9.50;;
24631;SDS011;59977;48.782;9.190;2023-06-22T05:14:16;15.82;;;9.27;;
24631;SDS011;59977;48.782;9.190;2023-06-22T05:16:42;14.32;;;9.05;;
24631;SDS011;59977;48.782;9.190;2023-06-22T05:19:09;15.93;;;8.88;;
24631;SDS011;59977;48.782;9.190;2023-06-22T05:21:35;16.48;;;8.98;;
24631;SDS011;59977;48.782;9.190;2023-06-22T05:24:01;15.45;;;9.00;;
24631;SDS011;59977;48.782;9.190;2023-06-22T05:26:31;17.13;;;8.65;;
24631;SDS011;59977;48.782;9.190;2023-06-22T05:28:58;17.05;;;8.80;;
24631;SDS011;59977;48.782;9.190;2023-06-22T05:31:24;12.10;;;8.23;;
24631;SDS011;59977;48.782;9.190;2023-06-22T05:33:51;14.15;;;8.57;;
24631;SDS011;59977;48.782;9.190;2023-06-22T05:36:17;15.50;;;7.97;;
24631;SDS011;59977;48.782;9.190;2023-06-22T05:38:50;15.07;;;8.13;;
24631;SDS011;59977;48.782;9.190;2023-06-22T05:41:16;18.38;;;8.00;;
24631;SDS011;59977;48.782;9.190;2023-06-22T05:43:42;15.25;;;7.28;;
24631;SDS011;59977;48.782;9.190;2023-06-22T05:46:08;12.07;;;6.93;;
24631;SDS011;59977;48.782;9.190;2023-06-22T05:48:33;12.02;;;7.32;;
24631;SDS011;59977;48.782;9.190;2023-06-22T05:50:59;14.88;;;7.57;;
24631;SDS011;59977;48.782;9.190;2023-06-22T05:53:25;15.50;;;8.00;;
24631;SDS011;59977;48.782;9.190;2023-06-22T05:55:51;16.42;;;7.68;;
24631;SDS011;59977;48.782;9.190;2023-06-22T05:58:17;13.60;;;7.30;;
24631;SDS011;59977;48.782;9.190;2023-06-22T06:00:43;15.52;;;7.22;;
24631;SDS011;59977;48.782;9.190;2023-06-22T06:03:10;12.38;;;7.18;;
24631;SDS011;59977;48.782;9.190;2023-06-22T06:05:36;16.80;;;6.80;;
24631;SDS011;59977;48.782;9.190;2023-06-22T06:08:03;15.48;;;7.45;;
24631;SDS011;59977;48.782;9.190;2023-06-22T06:10:30;13.50;;;7.00;;
24631;SDS011;59977;48.782;9.190;2023-06-22T06:12:56;15.20;;;6.78;;
24631;SDS011;59977;48.782;9.190;2023-06-22T06:15:22;12.10;;;7.22;;
24631;SDS011;59977;48.782;9.190;2023-06-22T06:20:14;13.75;;;6.38;;
24631;SDS011;59977;48.782;9.190;2023-06-22T06:25:08;16.00;;;7.38;;
24631;SDS011;59977;48.782;9.190;2023-06-22T06:27:34;14.52;;;6.80;;
24631;SDS011;59977;48.782;9.190;2023-06-22T06:30:00;13.80;;;7.20;;
24631;SDS011;59977;48.782;9.190;2023-06-22T06:32:27;9.45;;;6.35;;
24631;SDS011;59977;48.782;9.190;2023-06-22T06:34:53;16.65;;;6.80;;
24631;SDS011;59977;48.782;9.190;2023-06-22T06:37:19;13.80;;;7.10;;
24631;SDS011;59977;48.782;9.190;2023-06-22T06:39:45;14.20;;;6.47;;
24631;SDS011;59977;48.782;9.190;2023-06-22T06:42:11;15.32;;;6.55;;
24631;SDS011;59977;48.782;9.190;2023-06-22T06:44:37;11.57;;;6.07;;
24631;SDS011;59977;48.782;9.190;2023-06-22T06:47:04;14.77;;;6.35;;
24631;SDS011;59977;48.782;9.190;2023-06-22T06:49:30;13.68;;;6.00;;
24631;SDS011;59977;48.782;9.190;2023-06-22T06:51:56;14.77;;;6.13;;
24631;SDS011;59977;48.782;9.190;2023-06-22T06:54:22;12.90;;;6.18;;
24631;SDS011;59977;48.782;9.190;2023-06-22T06:56:48;10.80;;;6.35;;
24631;SDS011;59977;48.782;9.190;2023-06-22T06:59:14;11.65;;;6.70;;
24631;SDS011;59977;48.782;9.190;2023-06-22T07:01:41;13.70;;;6.90;;
24631;SDS011;59977;48.782;9.190;2023-06-22T07:04:09;8.40;;;5.57;;
24631;SDS011;59977;48.782;9.190;2023-06-22T07:06:35;16.20;;;6.68;;
24631;SDS011;59977;48.782;9.190;2023-06-22T07:09:02;14.00;;;6.22;;
24631;SDS011;59977;48.782;9.190;2023-06-22T07:11:28;15.13;;;6.13;;
24631;SDS011;59977;48.782;9.190;2023-06-22T07:13:55;13.68;;;5.70;;
24631;SDS011;59977;48.782;9.190;2023-06-22T07:16:20;9.57;;;5.82;;
24631;SDS011;59977;48.782;9.190;2023-06-22T07:18:48;16.75;;;5.97;;
24631;SDS011;59977;48.782;9.190;2023-06-22T07:21:14;13.85;;;5.72;;
24631;SDS011;59977;48.782;9.190;2023-06-22T07:23:39;11.40;;;5.70;;
24631;SDS011;59977;48.782;9.190;2023-06-22T07:26:05;13.18;;;6.00;;
24631;SDS011;59977;48.782;9.190;2023-06-22T07:28:33;10.02;;;5.43;;
24631;SDS011;59977;48.782;9.190;2023-06-22T07:31:02;18.23;;;6.10;;
24631;SDS011;59977;48.782;9.190;2023-06-22T07:33:32;12.55;;;6.10;;
24631;SDS011;59977;48.782;9.190;2023-06-22T07:35:59;14.20;;;5.60;;
24631;SDS011;59977;48.782;9.190;2023-06-22T07:38:26;13.10;;;5.70;;
24631;SDS011;59977;48.782;9.190;2023-06-22T07:40:53;15.32;;;5.65;;
24631;SDS011;59977;48.782;9.190;2023-06-22T07:43:20;13.38;;;5.95;;
24631;SDS011;59977;48.782;9.190;2023-06-22T07:45:50;10.80;;;5.30;;
24631;SDS011;59977;48.782;9.190;2023-06-22T07:48:21;13.32;;;5.60;;
24631;SDS011;59977;48.782;9.190;2023-06-22T07:50:48;13.45;;;6.10;;
24631;SDS011;59977;48.782;9.190;2023-06-22T07:53:14;11.70;;;5.28;;
24631;SDS011;59977;48.782;9.190;2023-06-22T07:55:42;13.48;;;5.45;;
24631;SDS011;59977;48.782;9.190;2023-06-22T07:58:10;11.35;;;5.20;;
24631;SDS011;59977;48.782;9.190;2023-06-22T08:00:51;9.00;;;5.35;;
24631;SDS011;59977;48.782;9.190;2023-06-22T08:03:31;12.00;;;5.35;;
24631;SDS011;59977;48.782;9.190;2023-06-22T08:06:04;17.52;;;5.45;;
24631;SDS011;59977;48.782;9.190;2023-06-22T08:08:32;16.17;;;5.38;;
24631;SDS011;59977;48.782;9.190;2023-06-22T08:10:59;12.25;;;5.20;;
24631;SDS011;59977;48.782;9.190;2023-06-22T08:13:28;12.35;;;5.22;;
24631;SDS011;59977;48.782;9.190;2023-06-22T08:15:59;9.23;;;5.65;;
24631;SDS011;59977;48.782;9.190;2023-06-22T08:18:48;15.25;;;5.90;;
24631;SDS011;59977;48.782;9.190;2023-06-22T08:24:12;12.07;;;5.35;;
24631;SDS011;59977;48.782;9.190;2023-06-22T08:26:51;15.10;;;5.28;;
24631;SDS011;59977;48.782;9.190;2023-06-22T08:29:30;9.82;;;5.35;;
24631;SDS011;59977;48.782;9.190;2023-06-22T08:31:58;10.13;;;5.00;;
24631;SDS011;59977;48.782;9.190;2023-06-22T08:34:31;9.57;;;4.97;;
24631;SDS011;59977;48.782;9.190;2023-06-22T08:36:59;16.05;;;5.60;;
24631;SDS011;59977;48.782;9.190;2023-06-22T08:39:25;9.40;;;5.20;;
24631;SDS011;59977;48.782;9.190;2023-06-22T08:41:52;17.42;;;5.03;;
24631;SDS011;59977;48.782;9.190;2023-06-22T08:44:19;14.65;;;5.90;;
24631;SDS011;59977;48.782;9.190;2023-06-22T08:46:46;15.95;;;5.68;;
24631;SDS011;59977;48.782;9.190;2023-06-22T08:49:13;18.38;;;5.32;;
24631;SDS011;59977;48.782;9.190;2023-06-22T08:51:42;12.43;;;5.72;;
24631;SDS011;59977;48.782;9.190;2023-06-22T08:54:10;8.90;;;4.88;;
24631;SDS011;59977;48.782;9.190;2023-06-22T08:56:36;15.07;;;5.80;;
24631;SDS011;59977;48.782;9.190;2023-06-22T08:59:02;19.23;;;5.65;;
24631;SDS011;59977;48.782;9.190;2023-06-22T09:01:28;12.98;;;5.47;;
24631;SDS011;59977;48.782;9.190;2023-06-22T09:03:54;13.25;;;5.18;;
24631;SDS011;59977;48.782;9.190;2023-06-22T09:06:22;16.38;;;5.68;;
24631;SDS011;59977;48.782;9.190;2023-06-22T09:08:49;21.08;;;6.20;;
24631;SDS011;59977;48.782;9.190;2023-06-22T09:11:15;18.65;;;5.63;;
24631;SDS011;59977;48.782;9.190;2023-06-22T09:13:41;22.33;;;6.75;;
24631;SDS011;59977;48.782;9.190;2023-06-22T09:16:07;23.60;;;6.40;;
24631;SDS011;59977;48.782;9.190;2023-06-22T09:18:34;18.10;;;5.40;;
24631;SDS011;59977;48.782;9.190;2023-06-22T09:21:01;26.13;;;6.90;;
24631;SDS011;59977;48.782;9.190;2023-06-22T09:23:27;24.92;;;6.07;;
24631;SDS011;59977;48.782;9.190;2023-06-22T09:25:53;25.05;;;5.40;;
24631;SDS011;59977;48.782;9.190;2023-06-22T09:28:19;22.55;;;5.72;;
24631;SDS011;59977;48.782;9.190;2023-06-22T09:30:45;26.38;;;6.20;;
24631;SDS011;59977;48.782;9.190;2023-06-22T09:33:11;18.95;;;5.22;;
24631;SDS011;59977;48.782;9.190;2023-06-22T09:35:38;26.52;;;6.28;;
24631;SDS011;59977;48.782;9.190;2023-06-22T09:38:04;18.17;;;5.57;;
24631;SDS011;59977;48.782;9.190;2023-06-22T09:40:30;19.42;;;5.63;;
24631;SDS011;59977;48.782;9.190;2023-06-22T09:42:57;21.38;;;6.03;;
24631;SDS011;59977;48.782;9.190;2023-06-22T09:45:23;14.82;;;5.13;;
24631;SDS011;59977;48.782;9.190;2023-06-22T09:47:49;13.88;;;5.53;;
24631;SDS011;59977;48.782;9.190;2023-06-22T09:50:15;14.68;;;5.28;;
24631;SDS011;59977;48.782;9.190;2023-06-22T09:52:41;22.13;;;6.15;;
24631;SDS011;59977;48.782;9.190;2023-06-22T09:55:09;20.55;;;5.85;;
24631;SDS011;59977;48.782;9.190;2023-06-22T09:57:35;15.95;;;5.65;;
24631;SDS011;59977;48.782;9.190;2023-06-22T10:00:01;20.05;;;5.43;;
24631;SDS011;59977;48.782;9.190;2023-06-22T10:02:30;19.55;;;5.93;;
24631;SDS011;59977;48.782;9.190;2023-06-22T10:04:56;20.77;;;5.30;;
24631;SDS011;59977;48.782;9.190;2023-06-22T10:07:22;21.90;;;6.13;;
24631;SDS011;59977;48.782;9.190;2023-06-22T10:09:48;15.93;;;5.65;;
24631;SDS011;59977;48.782;9.190;2023-06-22T10:12:14;16.75;;;5.93;;
24631;SDS011;59977;48.782;9.190;2023-06-22T10:14:40;14.75;;;5.55;;
24631;SDS011;59977;48.782;9.190;2023-06-22T10:17:06;18.80;;;5.15;;
24631;SDS011;59977;48.782;9.190;2023-06-22T10:19:32;16.70;;;5.57;;
24631;SDS011;59977;48.782;9.190;2023-06-22T10:21:58;16.83;;;5.30;;
24631;SDS011;59977;48.782;9.190;2023-06-22T10:24:24;16.10;;;5.38;;
24631;SDS011;59977;48.782;9.190;2023-06-22T10:26:50;16.08;;;6.10;;
24631;SDS011;59977;48.782;9.190;2023-06-22T10:29:16;24.95;;;6.40;;
24631;SDS011;59977;48.782;9.190;2023-06-22T10:31:43;19.38;;;5.57;;
24631;SDS011;59977;48.782;9.190;2023-06-22T10:34:09;17.73;;;5.53;;
24631;SDS011;59977;48.782;9.190;2023-06-22T10:36:35;18.38;;;6.03;;
24631;SDS011;59977;48.782;9.190;2023-06-22T10:39:01;19.42;;;6.75;;
24631;SDS011;59977;48.782;9.190;2023-06-22T10:41:28;22.52;;;6.55;;
24631;SDS011;59977;48.782;9.190;2023-06-22T10:43:57;19.02;;;6.20;;
24631;SDS011;59977;48.782;9.190;2023-06-22T10:46:26;18.48;;;5.70;;
24631;SDS011;59977;48.782;9.190;2023-06-22T10:48:52;23.08;;;6.20;;
24631;SDS011;59977;48.782;9.190;2023-06-22T10:51:23;21.65;;;6.15;;
24631;SDS011;59977;48.782;9.190;2023-06-22T10:53:50;21.30;;;6.05;;
24631;SDS011;59977;48.782;9.190;2023-06-22T10:56:16;16.25;;;6.35;;
24631;SDS011;59977;48.782;9.190;2023-06-22T10:58:44;18.40;;;5.88;;
24631;SDS011;59977;48.782;9.190;2023-06-22T11:01:10;16.60;;;5.55;;
24631;SDS011;59977;48.782;9.190;2023-06-22T11:03:36;19.23;;;5.53;;
24631;SDS011;59977;48.782;9.190;2023-06-22T11:06:02;20.75;;;5.70;;
24631;SDS011;59977;48.782;9.190;2023-06-22T11:08:28;19.45;;;5.85;;
24631;SDS011;59977;48.782;9.190;2023-06-22T11:10:54;18.50;;;5.43;;
24631;SDS011;59977;48.782;9.190;2023-06-22T11:13:20;19.33;;;5.60;;
24631;SDS011;59977;48.782;9.190;2023-06-22T11:15:46;18.20;;;5.85;;
24631;SDS011;59977;48.782;9.190;2023-06-22T11:18:12;20.40;;;5.97;;
24631;SDS011;59977;48.782;9.190;2023-06-22T11:20:38;16.50;;;5.63;;
24631;SDS011;59977;48.782;9.190;2023-06-22T11:23:05;16.27;;;5.40;;
24631;SDS011;59977;48.782;9.190;2023-06-22T11:25:31;18.02;;;5.35;;
24631;SDS011;59977;48.782;9.190;2023-06-22T11:28:00;21.92;;;5.95;;
24631;SDS011;59977;48.782;9.190;2023-06-22T11:30:25;18.95;;;5.40;;
24631;SDS011;59977;48.782;9.190;2023-06-22T11:32:52;18.88;;;5.65;;
24631;SDS011;59977;48.782;9.190;2023-06-22T11:35:18;16.38;;;5.65;;
24631;SDS011;59977;48.782;9.190;2023-06-22T11:37:44;15.48;;;5.45;;
24631;SDS011;59977;48.782;9.190;2023-06-22T11:40:10;21.33;;;6.65;;
24631;SDS011;59977;48.782;9.190;2023-06-22T11:42:36;25.90;;;6.07;;
24631;SDS011;59977;48.782;9.190;2023-06-22T11:45:04;18.17;;;6.05;;
24631;SDS011;59977;48.782;9.190;2023-06-22T11:47:30;19.33;;;6.15;;
24631;SDS011;59977;48.782;9.190;2023-06-22T11:49:56;23.30;;;6.40;;
24631;SDS011;59977;48.782;9.190;2023-06-22T11:52:22;16.48;;;5.88;;
24631;SDS011;59977;48.782;9.190;2023-06-22T11:54:48;22.23;;;6.50;;
24631;SDS011;59977;48.782;9.190;2023-06-22T11:57:14;20.17;;;6.25;;
24631;SDS011;59977;48.782;9.190;2023-06-22T11:59:40;22.20;;;6.15;;
24631;SDS011;59977;48.782;9.190;2023-06-22T12:02:06;25.65;;;7.22;;
24631;SDS011;59977;48.782;9.190;2023-06-22T12:04:34;26.95;;;6.15;;
24631;SDS011;59977;48.782;9.190;2023-06-22T12:07:00;17.85;;;6.45;;
24631;SDS011;59977;48.782;9.190;2023-06-22T12:09:26;16.23;;;6.05;;
24631;SDS011;59977;48.782;9.190;2023-06-22T12:11:52;19.88;;;5.80;;
24631;SDS011;59977;48.782;9.190;2023-06-22T12:14:18;16.52;;;5.75;;
24631;SDS011;59977;48.782;9.190;2023-06-22T12:16:44;19.20;;;5.35;;
24631;SDS011;59977;48.782;9.190;2023-06-22T12:19:10;20.30;;;5.78;;
24631;SDS011;59977;48.782;9.190;2023-06-22T12:21:37;17.67;;;6.43;;
24631;SDS011;59977;48.782;9.190;2023-06-22T12:24:05;23.02;;;5.90;;
24631;SDS011;59977;48.782;9.190;2023-06-22T12:26:31;20.42;;;6.00;;
24631;SDS011;59977;48.782;9.190;2023-06-22T12:28:57;18.27;;;5.82;;
24631;SDS011;59977;48.782;9.190;2023-06-22T12:31:23;16.52;;;6.03;;
24631;SDS011;59977;48.782;9.190;2023-06-22T12:33:49;14.07;;;5.70;;
24631;SDS011;59977;48.782;9.190;2023-06-22T12:36:15;16.42;;;5.65;;
24631;SDS011;59977;48.782;9.190;2023-06-22T12:38:41;22.70;;;5.93;;
24631;SDS011;59977;48.782;9.190;2023-06-22T12:41:07;18.15;;;5.88;;
24631;SDS011;59977;48.782;9.190;2023-06-22T12:43:33;18.98;;;5.60;;
24631;SDS011;59977;48.782;9.190;2023-06-22T12:45:59;19.42;;;6.00;;
24631;SDS011;59977;48.782;9.190;2023-06-22T12:48:25;21.67;;;5.70;;
24631;SDS011;59977;48.782;9.190;2023-06-22T12:50:52;22.70;;;5.93;;
24631;SDS011;59977;48.782;9.190;2023-06-22T12:53:18;21.73;;;6.10;;
24631;SDS011;59977;48.782;9.190;2023-06-22T12:55:44;13.05;;;5.25;;
24631;SDS011;59977;48.782;9.190;2023-06-22T12:58:10;15.23;;;5.47;;
24631;SDS011;59977;48.782;9.190;2023-06-22T13:00:36;20.67;;;5.90;;
24631;SDS011;59977;48.782;9.190;2023-06-22T13:03:02;25.33;;;6.20;;
24631;SDS011;59977;48.782;9.190;2023-06-22T13:05:28;26.60;;;5.82;;
24631;SDS011;59977;48.782;9.190;2023-06-22T13:07:55;14.75;;;5.60;;
24631;SDS011;59977;48.782;9.190;2023-06-22T13:10:21;14.38;;;5.68;;
24631;SDS011;59977;48.782;9.190;2023-06-22T13:12:47;18.05;;;5.93;;
24631;SDS011;59977;48.782;9.190;2023-06-22T13:15:13;17.70;;;5.45;;
24631;SDS011;59977;48.782;9.190;2023-06-22T13:17:39;15.40;;;5.57;;
24631;SDS011;59977;48.782;9.190;2023-06-22T13:20:05;28.10;;;5.90;;
24631;SDS011;59977;48.782;9.190;2023-06-22T13:22:32;17.13;;;5.30;;
24631;SDS011;59977;48.782;9.190;2023-06-22T13:24:59;21.67;;;6.15;;
24631;SDS011;59977;48.782;9.190;2023-06-22T13:27:25;15.82;;;5.55;;
24631;SDS011;59977;48.782;9.190;2023-06-22T13:29:52;22.35;;;6.53;;
24631;SDS011;59977;48.782;9.190;2023-06-22T13:32:18;24.75;;;6.75;;
24631;SDS011;59977;48.782;9.190;2023-06-22T13:34:44;20.27;;;6.93;;
24631;SDS011;59977;48.782;9.190;2023-06-22T13:37:10;21.23;;;6.13;;
24631;SDS011;59977;48.782;9.190;2023-06-22T13:39:36;22.80;;;6.28;;
24631;SDS011;59977;48.782;9.190;2023-06-22T13:42:02;17.50;;;6.10;;
24631;SDS011;59977;48.782;9.190;2023-06-22T13:44:28;20.17;;;6.50;;
24631;SDS011;59977;48.782;9.190;2023-06-22T13:46:56;23.13;;;5.85;;
24631;SDS011;59977;48.782;9.190;2023-06-22T13:49:23;20.92;;;6.57;;
24631;SDS011;59977;48.782;9.190;2023-06-22T13:51:49;19.90;;;6.20;;
24631;SDS011;59977;48.782;9.190;2023-06-22T13:54:15;17.95;;;6.60;;
24631;SDS011;59977;48.782;9.190;2023-06-22T13:56:41;20.98;;;6.13;;
24631;SDS011;59977;48.782;9.190;2023-06-22T13:59:07;25.38;;;6.50;;
24631;SDS011;59977;48.782;9.190;2023-06-22T14:01:37;16.20;;;5.85;;
24631;SDS011;59977;48.782;9.190;2023-06-22T14:04:05;19.23;;;5.80;;
24631;SDS011;59977;48.782;9.190;2023-06-22T14:06:31;22.20;;;5.65;;
24631;SDS011;59977;48.782;9.190;2023-06-22T14:08:57;19.30;;;6.55;;
24631;SDS011;59977;48.782;9.190;2023-06-22T14:11:24;19.45;;;6.22;;
24631;SDS011;59977;48.782;9.190;2023-06-22T14:13:50;18.02;;;5.97;;
24631;SDS011;59977;48.782;9.190;2023-06-22T14:16:16;22.95;;;6.68;;
24631;SDS011;59977;48.782;9.190;2023-06-22T14:18:42;22.40;;;5.88;;
24631;SDS011;59977;48.782;9.190;2023-06-22T14:21:08;15.00;;;5.70;;
24631;SDS011;59977;48.782;9.190;2023-06-22T14:23:34;14.23;;;4.75;;
24631;SDS011;59977;48.782;9.190;2023-06-22T14:26:00;25.33;;;5.75;;
24631;SDS011;59977;48.782;9.190;2023-06-22T14:28:26;19.05;;;5.30;;
24631;SDS011;59977;48.782;9.190;2023-06-22T14:30:52;19.77;;;5.22;;
24631;SDS011;59977;48.782;9.190;2023-06-22T14:33:18;21.33;;;5.80;;
24631;SDS011;59977;48.782;9.190;2023-06-22T14:35:44;19.90;;;5.72;;
24631;SDS011;59977;48.782;9.190;2023-06-22T14:38:10;17.38;;;5.00;;
24631;SDS011;59977;48.782;9.190;2023-06-22T14:40:36;22.08;;;5.40;;
24631;SDS011;59977;48.782;9.190;2023-06-22T14:43:02;13.15;;;4.65;;
24631;SDS011;59977;48.782;9.190;2023-06-22T14:45:28;50.78;;;6.07;;
24631;SDS011;59977;48.782;9.190;2023-06-22T14:47:54;23.83;;;5.05;;